Shipston-on-Stour, United Kingdom
Current Conditions -  °F | °C
As of 6:50 AM on Sunday 21 Dec 2014 (Local Time) from EGTK Reporting Station
Overcast Overcast  
Wind Chill: 37°   Ceiling: 500
Heat Index: 43°   Visibility: 6mi
Dew Point: 43°   Wind: 9mph
Humidity: 100%   Direction: 220°SW
Pressure: 30.33"   Gusts: NA
Location:  52.06°N, 1.63°W
Report Text: EGTK 210650Z 22008KT 190V250 9999 BKN005 OVC006 06/06 Q1027
Loading
Personal Weather Stations






























Interactive Weather Map New forecast layout! Learn more

10-Day Weather Forecast

Advertisements
Track Severe Weather on mobile